Time;durP1;ratioP1;P1;durP2;ratioP2;P2;SDS_P1;SDS_P2;PMS_P1;PMS_P2;Temp;Humidity;BMP_temperature;BMP_pressure;BME280_temperature;BME280_humidity;BME280_pressure;Samples;Min_cycle;Max_cycle;Signal;HPM_P1;HPM_P2
2021/07/18 00:01:08;;;;;;;6.97;1.67;;;;;;;24.58;55.69;99959.91;5006764;28;20053;-71
2021/07/18 00:03:35;;;;;;;6.45;1.80;;;;;;;24.52;55.42;99962.94;5007906;28;20038;-71
2021/07/18 00:06:02;;;;;;;6.22;1.80;;;;;;;24.40;55.99;99950.13;5006972;28;20050;-71
2021/07/18 00:08:30;;;;;;;10.63;1.83;;;;;;;24.36;56.07;99953.91;5007079;28;20096;-71
2021/07/18 00:10:57;;;;;;;10.05;2.03;;;;;;;24.36;56.11;99957.47;5007417;28;20049;-71
2021/07/18 00:13:24;;;;;;;8.68;1.92;;;;;;;24.27;56.17;99954.44;5008110;28;20046;-70
2021/07/18 00:15:53;;;;;;;6.05;1.92;;;;;;;24.29;56.33;99947.09;5007930;28;20045;-71
2021/07/18 00:18:21;;;;;;;7.78;1.70;;;;;;;24.30;56.45;99947.03;5003667;28;20423;-71
2021/07/18 00:20:50;;;;;;;6.13;1.63;;;;;;;24.14;56.80;99940.69;4989391;28;20039;-71
2021/07/18 00:23:17;;;;;;;6.63;1.75;;;;;;;24.07;56.84;99942.84;4989089;28;20047;-71
2021/07/18 00:25:44;;;;;;;7.15;1.90;;;;;;;23.91;57.46;99941.03;4990365;28;20057;-71
2021/07/18 00:28:12;;;;;;;7.43;1.73;;;;;;;23.80;57.64;99936.19;4993153;28;20403;-71
2021/07/18 00:30:39;;;;;;;8.98;1.67;;;;;;;23.94;57.30;99938.19;4988131;28;21783;-71
2021/07/18 00:33:08;;;;;;;6.90;1.67;;;;;;;23.94;57.45;99935.47;4985385;28;20515;-71
2021/07/18 00:35:35;;;;;;;11.13;2.25;;;;;;;23.94;57.34;99936.34;4993447;28;20049;-71
2021/07/18 00:38:04;;;;;;;11.80;1.95;;;;;;;24.00;57.27;99935.16;4995229;28;20047;-71
2021/07/18 00:40:32;;;;;;;7.70;1.80;;;;;;;23.99;57.24;99936.97;4989566;28;20046;-71
2021/07/18 00:43:00;;;;;;;8.93;1.75;;;;;;;24.01;57.16;99931.50;4991504;28;20042;-71
2021/07/18 00:45:27;;;;;;;6.18;1.70;;;;;;;24.05;57.07;99935.78;4991406;28;20564;-70
2021/07/18 00:47:55;;;;;;;5.55;1.42;;;;;;;24.00;57.41;99937.84;4997552;28;20456;-71
2021/07/18 00:50:25;;;;;;;5.97;1.80;;;;;;;23.84;57.71;99930.56;4991371;28;20168;-70
2021/07/18 00:52:53;;;;;;;5.97;1.95;;;;;;;23.75;57.89;99936.44;4981200;28;20101;-71
2021/07/18 00:55:20;;;;;;;5.00;1.92;;;;;;;23.68;58.38;99932.31;4991810;28;20701;-69
2021/07/18 00:57:49;;;;;;;6.32;2.03;;;;;;;23.73;58.21;99937.47;4997197;28;20100;-71
2021/07/18 01:00:19;;;;;;;11.40;2.22;;;;;;;23.82;58.07;99934.31;4994292;28;20392;-71
2021/07/18 01:02:47;;;;;;;8.02;2.13;;;;;;;23.87;57.90;99931.38;4997320;28;20042;-71
2021/07/18 01:05:16;;;;;;;8.35;2.40;;;;;;;23.93;57.90;99937.31;4991148;28;20049;-71
2021/07/18 01:07:46;;;;;;;8.63;1.77;;;;;;;23.88;57.98;99936.69;4991897;28;20049;-71
2021/07/18 01:10:13;;;;;;;6.40;2.30;;;;;;;23.78;58.22;99930.00;4994546;28;20544;-71
2021/07/18 01:12:41;;;;;;;6.35;1.92;;;;;;;23.80;58.38;99937.06;4993301;28;20050;-71
2021/07/18 01:15:09;;;;;;;8.95;2.00;;;;;;;23.79;58.66;99938.03;4990813;28;20042;-71
2021/07/18 01:17:38;;;;;;;9.38;1.65;;;;;;;23.71;58.63;99932.16;4986915;28;20043;-71
2021/07/18 01:20:06;;;;;;;12.27;2.33;;;;;;;23.70;58.70;99932.22;4977921;28;20062;-71
2021/07/18 01:22:36;;;;;;;5.88;2.20;;;;;;;23.72;58.73;99927.63;4996770;28;20045;-71
2021/07/18 01:25:08;;;;;;;10.40;1.75;;;;;;;23.67;58.87;99935.97;5008029;28;20038;-71
2021/07/18 01:27:36;;;;;;;9.98;1.98;;;;;;;23.70;59.01;99938.47;4993191;28;20049;-71
2021/07/18 01:30:06;;;;;;;9.18;2.10;;;;;;;23.73;58.95;99932.94;4997663;28;20047;-71
2021/07/18 01:32:33;;;;;;;7.63;1.58;;;;;;;23.75;58.91;99935.56;4995374;28;20057;-71
2021/07/18 01:35:01;;;;;;;5.45;1.73;;;;;;;23.70;59.31;99935.78;5001790;28;20053;-71
2021/07/18 01:37:28;;;;;;;10.43;2.00;;;;;;;23.69;59.22;99935.91;4994313;28;20045;-71
2021/07/18 01:39:57;;;;;;;8.38;1.65;;;;;;;23.70;59.39;99934.91;4997096;28;20042;-71
2021/07/18 01:42:25;;;;;;;8.93;2.22;;;;;;;23.66;59.50;99928.81;4992190;28;20034;-70
2021/07/18 01:44:52;;;;;;;8.52;2.00;;;;;;;23.52;59.94;99928.66;4991722;28;20046;-70
2021/07/18 01:47:20;;;;;;;5.93;1.95;;;;;;;23.42;60.22;99927.34;5002625;28;20045;-71
2021/07/18 01:49:47;;;;;;;4.78;1.85;;;;;;;23.45;60.21;99922.66;4993259;28;20042;-71
2021/07/18 01:52:19;;;;;;;8.25;2.20;;;;;;;23.54;59.63;99924.06;4996029;28;20387;-71
2021/07/18 01:54:46;;;;;;;7.40;2.03;;;;;;;23.56;59.01;99927.56;5000679;28;20104;-71
2021/07/18 01:57:15;;;;;;;7.93;1.98;;;;;;;23.49;59.28;99919.88;4992739;28;20042;-71
2021/07/18 01:59:43;;;;;;;10.45;2.30;;;;;;;23.44;59.53;99918.22;5002067;28;20396;-71
2021/07/18 02:02:10;;;;;;;9.75;1.98;;;;;;;23.45;59.62;99928.06;4996256;28;20039;-70
2021/07/18 02:04:38;;;;;;;7.28;2.00;;;;;;;23.34;59.58;99927.75;5007514;28;20049;-71
2021/07/18 02:07:07;;;;;;;10.45;2.42;;;;;;;23.27;59.54;99922.72;5001350;28;20050;-71
2021/07/18 02:09:37;;;;;;;5.43;1.42;;;;;;;23.28;59.74;99927.16;5001274;28;20042;-71
2021/07/18 02:12:06;;;;;;;12.27;1.65;;;;;;;23.21;59.81;99932.00;4998294;28;20054;-71
2021/07/18 02:14:35;;;;;;;9.35;1.65;;;;;;;23.19;59.60;99930.31;5007961;28;20522;-71
2021/07/18 02:17:03;;;;;;;7.63;1.92;;;;;;;23.20;59.89;99915.91;5002823;28;20034;-71
2021/07/18 02:19:30;;;;;;;7.80;1.67;;;;;;;23.24;59.75;99926.44;5006494;28;20518;-71
2021/07/18 02:21:59;;;;;;;11.02;1.88;;;;;;;23.15;59.67;99921.53;5001628;28;20039;-71
2021/07/18 02:24:26;;;;;;;6.38;1.83;;;;;;;23.05;60.43;99928.28;5002788;28;20054;-71
2021/07/18 02:26:54;;;;;;;5.55;1.80;;;;;;;23.02;60.30;99929.34;5006191;28;20046;-70
2021/07/18 02:29:22;;;;;;;8.32;1.63;;;;;;;22.95;60.51;99929.72;4998635;28;20395;-69
2021/07/18 02:31:51;;;;;;;8.35;1.85;;;;;;;23.00;60.31;99936.59;5001761;28;20473;-71
2021/07/18 02:34:18;;;;;;;8.00;2.00;;;;;;;23.07;60.06;99936.31;4999333;28;20076;-71
2021/07/18 02:36:46;;;;;;;6.30;1.48;;;;;;;23.11;59.69;99943.28;4994557;28;20039;-71
2021/07/18 02:39:13;;;;;;;4.53;1.70;;;;;;;23.05;59.40;99937.25;5000887;28;20574;-71
2021/07/18 02:41:40;;;;;;;8.15;1.80;;;;;;;22.98;59.68;99943.88;5003876;28;20045;-71
2021/07/18 02:44:08;;;;;;;4.13;1.70;;;;;;;22.89;60.26;99938.97;4999211;28;20038;-71
2021/07/18 02:46:36;;;;;;;9.32;2.50;;;;;;;22.90;60.16;99940.72;5000355;28;20046;-70
2021/07/18 02:49:06;;;;;;;8.00;2.15;;;;;;;22.97;59.88;99944.81;4994554;28;20038;-71
2021/07/18 02:51:33;;;;;;;7.38;1.85;;;;;;;23.04;59.98;99948.97;4996915;28;20527;-70
2021/07/18 02:54:01;;;;;;;6.45;1.77;;;;;;;23.10;59.70;99942.44;4999478;28;20045;-71
2021/07/18 02:56:28;;;;;;;6.53;1.70;;;;;;;23.13;60.03;99950.34;5000734;28;20039;-70
2021/07/18 02:58:55;;;;;;;8.85;2.03;;;;;;;23.14;59.73;99946.72;4997192;28;20057;-71
2021/07/18 03:01:23;;;;;;;8.63;1.92;;;;;;;23.14;60.00;99952.09;4994619;28;20446;-70
2021/07/18 03:03:50;;;;;;;6.80;1.90;;;;;;;23.13;59.83;99952.16;5002111;28;20042;-71
2021/07/18 03:06:19;;;;;;;6.03;1.70;;;;;;;23.14;60.15;99954.78;5004459;28;20038;-71
2021/07/18 03:08:46;;;;;;;7.00;1.50;;;;;;;23.16;59.76;99950.22;4997476;28;20046;-70
2021/07/18 03:11:14;;;;;;;7.55;1.63;;;;;;;23.14;60.06;99951.22;4996223;28;20042;-70
2021/07/18 03:13:41;;;;;;;8.27;1.90;;;;;;;23.13;60.28;99953.03;5000625;28;20041;-70
2021/07/18 03:16:08;;;;;;;7.70;2.25;;;;;;;23.17;60.70;99957.31;4998110;28;20054;-71
2021/07/18 03:18:36;;;;;;;8.98;2.33;;;;;;;23.17;60.90;99960.00;4992382;28;20487;-71
2021/07/18 03:21:03;;;;;;;7.47;1.80;;;;;;;23.14;60.90;99953.91;5007994;28;20531;-71
2021/07/18 03:23:32;;;;;;;8.27;2.28;;;;;;;23.15;60.84;99956.53;4989867;28;20041;-71
2021/07/18 03:25:59;;;;;;;8.18;2.15;;;;;;;23.14;60.96;99956.59;5008315;28;20131;-71
2021/07/18 03:28:26;;;;;;;6.65;1.95;;;;;;;23.13;60.69;99961.13;5008514;28;20053;-71
2021/07/18 03:30:56;;;;;;;7.50;1.70;;;;;;;23.18;60.46;99959.06;5007952;28;20053;-71
2021/07/18 03:33:23;;;;;;;6.78;1.77;;;;;;;23.25;60.64;99960.50;5006300;28;20066;-70
2021/07/18 03:35:52;;;;;;;9.95;2.67;;;;;;;23.33;60.36;99960.13;5009424;28;20053;-71
2021/07/18 03:38:20;;;;;;;7.32;1.90;;;;;;;23.35;60.51;99956.44;5007628;28;20042;-71
2021/07/18 03:40:49;;;;;;;7.00;2.38;;;;;;;23.45;60.32;99959.53;5007994;28;20053;-71
2021/07/18 03:43:16;;;;;;;5.57;1.60;;;;;;;23.52;60.17;99952.91;5007075;28;20042;-70
2021/07/18 03:45:43;;;;;;;5.40;2.03;;;;;;;23.62;60.00;99967.69;5008750;28;20042;-71
2021/07/18 03:48:11;;;;;;;9.30;1.63;;;;;;;23.71;59.52;99963.63;5006740;28;20407;-71
2021/07/18 03:50:38;;;;;;;7.35;2.22;;;;;;;23.84;59.32;99962.03;5007984;28;20049;-71
2021/07/18 03:53:06;;;;;;;9.65;1.73;;;;;;;24.01;59.35;99969.25;5007797;28;20038;-71
2021/07/18 03:55:35;;;;;;;5.60;1.85;;;;;;;24.17;59.25;99960.28;5001932;28;20053;-71
2021/07/18 03:58:05;;;;;;;6.72;1.60;;;;;;;24.36;59.44;99960.19;5007527;28;20041;-71
2021/07/18 04:00:32;;;;;;;10.98;2.10;;;;;;;24.52;58.88;99965.63;5006898;28;20522;-71
2021/07/18 04:03:00;;;;;;;5.15;2.10;;;;;;;24.60;58.50;99972.38;5007926;28;20054;-70
2021/07/18 04:05:27;;;;;;;7.95;1.55;;;;;;;24.76;58.84;99964.28;5008168;28;20038;-70
2021/07/18 04:07:55;;;;;;;4.47;1.80;;;;;;;24.96;58.75;99960.50;5007413;28;20546;-71
2021/07/18 04:10:22;;;;;;;6.32;1.50;;;;;;;25.15;58.42;99969.28;5006919;28;20042;-70
2021/07/18 04:12:50;;;;;;;3.90;1.30;;;;;;;25.33;57.62;99973.66;5008629;28;20054;-71
2021/07/18 04:15:19;;;;;;;5.40;2.13;;;;;;;25.56;56.91;99982.25;5007885;28;20053;-71
2021/07/18 04:17:46;;;;;;;6.03;1.20;;;;;;;25.73;56.09;99980.31;5007469;28;20038;-71
2021/07/18 04:20:15;;;;;;;4.82;1.83;;;;;;;25.98;55.20;99970.75;5003361;28;20042;-71
2021/07/18 04:22:42;;;;;;;5.35;1.23;;;;;;;26.16;54.35;99972.31;4998051;28;20062;-71
2021/07/18 04:25:11;;;;;;;5.25;1.40;;;;;;;26.37;53.71;99975.59;5002194;28;20523;-71
2021/07/18 04:27:39;;;;;;;6.88;1.40;;;;;;;26.54;52.67;99969.97;5006446;28;20395;-71
2021/07/18 04:30:07;;;;;;;4.75;1.70;;;;;;;26.72;51.99;99976.94;4999042;28;20045;-71
2021/07/18 04:32:36;;;;;;;4.75;1.23;;;;;;;26.91;52.25;99969.41;5000130;28;20057;-72
2021/07/18 04:35:04;;;;;;;4.40;1.30;;;;;;;27.09;52.05;99978.19;4998931;28;20034;-71
2021/07/18 04:37:31;;;;;;;8.55;1.50;;;;;;;27.29;51.13;99971.47;4996198;28;20049;-71
2021/07/18 04:39:58;;;;;;;6.63;1.65;;;;;;;27.52;50.87;99978.09;5005449;28;20034;-71
2021/07/18 04:42:26;;;;;;;4.95;1.10;;;;;;;27.69;50.41;99972.41;4997571;28;20043;-72
2021/07/18 04:44:53;;;;;;;7.75;1.35;;;;;;;27.88;49.59;99980.16;4993099;28;20038;-70
2021/07/18 04:47:22;;;;;;;9.05;1.80;;;;;;;28.12;49.27;99979.34;4995465;28;20049;-71
2021/07/18 04:49:52;;;;;;;5.93;1.40;;;;;;;28.41;48.75;99974.63;4994253;28;20039;-71
2021/07/18 04:52:19;;;;;;;6.68;1.30;;;;;;;28.66;48.43;99979.19;4996499;28;20035;-72
2021/07/18 04:54:47;;;;;;;9.75;1.52;;;;;;;28.93;47.91;99976.34;5005830;28;20049;-72
2021/07/18 04:57:14;;;;;;;5.10;1.23;;;;;;;29.18;47.31;99978.13;5001994;28;20404;-71
2021/07/18 04:59:41;;;;;;;2.88;1.20;;;;;;;29.41;46.63;99981.88;5002128;28;20031;-72
2021/07/18 05:02:09;;;;;;;8.13;1.33;;;;;;;29.71;46.18;99990.47;4991382;28;21855;-72
2021/07/18 05:04:36;;;;;;;7.43;1.30;;;;;;;29.94;45.19;99981.41;4995313;28;20394;-71
2021/07/18 05:07:07;;;;;;;4.90;1.50;;;;;;;30.22;44.91;99977.41;4997407;28;20039;-72
2021/07/18 05:09:35;;;;;;;6.28;1.30;;;;;;;30.36;44.23;99984.50;4996797;28;20456;-72
2021/07/18 05:12:02;;;;;;;7.03;1.55;;;;;;;30.55;43.58;99990.28;4993871;28;20046;-72
2021/07/18 05:14:29;;;;;;;9.95;1.40;;;;;;;30.68;43.21;99992.88;4997334;28;20050;-72
2021/07/18 05:16:56;;;;;;;6.45;1.63;;;;;;;30.84;43.56;99988.81;4991040;28;20045;-72
2021/07/18 05:19:24;;;;;;;8.90;1.48;;;;;;;31.07;43.13;99991.53;5005014;28;20592;-71
2021/07/18 05:21:56;;;;;;;2.88;1.08;;;;;;;31.30;42.80;99987.81;5014488;28;20542;-72
2021/07/18 05:24:25;;;;;;;6.13;1.50;;;;;;;31.58;42.40;99989.06;5006657;28;20046;-71
2021/07/18 05:26:53;;;;;;;5.97;1.52;;;;;;;31.75;42.03;99993.16;5013014;28;20041;-70
2021/07/18 05:29:20;;;;;;;10.10;1.67;;;;;;;31.95;41.71;99992.34;5013622;28;20070;-72
2021/07/18 05:31:47;;;;;;;4.55;1.40;;;;;;;32.26;41.54;99996.91;5013446;28;20046;-72
2021/07/18 05:34:15;;;;;;;7.60;1.52;;;;;;;32.48;41.14;99986.84;5005171;28;20070;-71
2021/07/18 05:36:42;;;;;;;9.57;1.50;;;;;;;32.76;41.29;99999.81;5015648;28;20053;-72
2021/07/18 05:39:09;;;;;;;9.15;1.73;;;;;;;32.90;41.03;99993.13;5014145;28;20092;-72
2021/07/18 05:41:38;;;;;;;4.13;1.17;;;;;;;33.17;40.08;100001.59;5013766;28;20050;-72
2021/07/18 05:44:05;;;;;;;6.43;1.33;;;;;;;33.40;39.83;100002.28;5012518;28;20042;-71
2021/07/18 05:46:33;;;;;;;8.52;1.35;;;;;;;33.56;39.16;100003.44;5011249;28;20038;-71
2021/07/18 05:49:00;;;;;;;3.97;1.35;;;;;;;33.85;38.59;100006.25;5010161;28;20038;-71
2021/07/18 05:51:29;;;;;;;5.45;1.75;;;;;;;34.21;38.03;100003.78;5012179;28;20038;-71
2021/07/18 05:53:56;;;;;;;5.18;1.50;;;;;;;34.48;37.80;100012.16;5014396;28;20041;-71
2021/07/18 05:56:23;;;;;;;6.80;1.45;;;;;;;34.62;37.51;100005.34;5012427;28;20034;-70
2021/07/18 05:58:52;;;;;;;3.65;1.38;;;;;;;34.77;36.71;100014.88;5008429;28;20037;-72
2021/07/18 06:01:20;;;;;;;5.70;1.40;;;;;;;34.87;35.89;100014.81;5006583;28;20054;-70
2021/07/18 06:03:48;;;;;;;7.13;1.30;;;;;;;34.93;35.69;100014.22;5009216;28;20041;-70
2021/07/18 06:06:15;;;;;;;5.53;1.60;;;;;;;35.06;35.49;100010.09;5008304;28;20045;-70
2021/07/18 06:08:42;;;;;;;7.00;2.35;;;;;;;34.92;35.52;100012.50;5010151;28;20053;-70
2021/07/18 06:11:10;;;;;;;7.13;1.88;;;;;;;34.89;36.20;100010.91;5007176;28;20067;-70
2021/07/18 06:13:38;;;;;;;11.10;2.33;;;;;;;35.07;35.85;100008.22;5009861;28;20527;-70
2021/07/18 06:16:08;;;;;;;11.48;2.22;;;;;;;35.08;35.89;100007.22;5009140;28;20053;-70
2021/07/18 06:18:36;;;;;;;12.55;2.60;;;;;;;35.00;35.56;100005.22;5000171;28;20049;-70
2021/07/18 06:21:04;;;;;;;8.13;1.92;;;;;;;35.00;35.61;100015.34;4993870;28;20046;-71
2021/07/18 06:23:31;;;;;;;9.85;2.08;;;;;;;35.04;35.76;100011.28;4986317;28;20038;-70
2021/07/18 06:25:58;;;;;;;8.45;2.60;;;;;;;35.03;36.01;100004.06;4992261;28;20042;-71
2021/07/18 06:28:26;;;;;;;7.07;2.33;;;;;;;35.20;36.47;100011.50;4994067;28;21277;-69
2021/07/18 06:30:56;;;;;;;10.68;2.42;;;;;;;35.21;35.97;100005.03;4990039;28;20043;-69
2021/07/18 06:33:25;;;;;;;7.68;2.33;;;;;;;35.09;35.84;100009.81;4989752;28;20121;-69
2021/07/18 06:35:52;;;;;;;6.53;2.47;;;;;;;35.13;35.62;100004.88;4989892;28;20444;-70
2021/07/18 06:38:20;;;;;;;10.07;2.35;;;;;;;35.07;36.26;100009.09;4989384;28;20050;-69
2021/07/18 06:40:47;;;;;;;8.45;2.28;;;;;;;35.04;35.86;100012.16;4988109;28;20045;-70
2021/07/18 06:43:14;;;;;;;12.65;2.72;;;;;;;35.06;35.81;100015.59;4986265;28;20046;-70
2021/07/18 06:45:42;;;;;;;11.52;2.35;;;;;;;34.93;36.17;100003.22;4987867;28;20080;-70
2021/07/18 06:48:10;;;;;;;9.50;2.97;;;;;;;34.82;36.58;100009.78;4971443;28;20045;-70
2021/07/18 06:50:39;;;;;;;13.77;2.55;;;;;;;34.64;36.80;100014.28;4988956;28;20526;-70
2021/07/18 06:53:06;;;;;;;6.68;2.67;;;;;;;34.57;37.31;100011.28;4993236;28;20069;-70
2021/07/18 06:55:35;;;;;;;9.80;2.47;;;;;;;34.61;36.80;99996.25;4997337;28;20127;-69
2021/07/18 06:58:04;;;;;;;11.52;2.80;;;;;;;34.27;37.26;100008.72;4987391;28;20034;-69
2021/07/18 07:00:33;;;;;;;9.80;2.38;;;;;;;33.94;38.21;100010.88;4989112;28;20054;-69
2021/07/18 07:03:01;;;;;;;9.25;2.38;;;;;;;33.78;38.03;100010.59;4991815;28;20509;-70
2021/07/18 07:05:28;;;;;;;8.80;2.65;;;;;;;33.45;38.41;99999.97;4988652;28;20050;-71
2021/07/18 07:07:57;;;;;;;10.48;2.15;;;;;;;33.93;38.03;99995.47;4991070;28;20129;-70
2021/07/18 07:10:24;;;;;;;10.30;2.95;;;;;;;34.25;37.39;100002.53;4988303;28;20054;-69
2021/07/18 07:12:52;;;;;;;11.55;2.55;;;;;;;34.51;36.78;100000.03;4989327;28;20043;-70
2021/07/18 07:15:19;;;;;;;8.18;2.42;;;;;;;34.70;36.83;99997.22;4993324;28;20492;-69
2021/07/18 07:17:47;;;;;;;9.68;2.47;;;;;;;34.84;36.62;100006.91;4984552;28;20042;-70
2021/07/18 07:20:15;;;;;;;9.88;2.40;;;;;;;34.88;36.28;100000.94;4995547;28;20038;-71
2021/07/18 07:22:43;;;;;;;8.73;2.53;;;;;;;34.90;36.45;100004.41;4997300;28;20512;-70
2021/07/18 07:25:15;;;;;;;7.03;2.38;;;;;;;35.06;36.14;100014.72;4997302;28;20436;-70
2021/07/18 07:27:43;;;;;;;6.70;1.92;;;;;;;35.28;35.60;100006.16;5001306;28;20451;-70
2021/07/18 07:30:14;;;;;;;7.10;2.10;;;;;;;35.36;35.48;100006.25;5003962;28;20041;-70
2021/07/18 07:32:41;;;;;;;7.13;1.92;;;;;;;35.45;35.52;100005.31;4999389;28;20034;-70
2021/07/18 07:35:12;;;;;;;7.32;1.90;;;;;;;35.85;35.17;100009.53;5003758;28;20042;-70
2021/07/18 07:37:40;;;;;;;7.40;2.50;;;;;;;36.07;34.63;100009.09;4995648;28;20092;-71
2021/07/18 07:40:09;;;;;;;7.75;1.98;;;;;;;35.93;34.04;100006.88;5001732;28;20045;-69
2021/07/18 07:42:38;;;;;;;8.23;2.10;;;;;;;35.51;34.27;100012.09;4988483;28;20503;-70
2021/07/18 07:45:09;;;;;;;6.22;1.92;;;;;;;35.29;34.72;100007.00;4991639;28;20504;-69
2021/07/18 07:47:36;;;;;;;10.23;2.88;;;;;;;35.49;34.82;100016.88;4987089;28;20037;-70
2021/07/18 07:50:04;;;;;;;8.40;1.98;;;;;;;35.69;34.32;100009.38;5000740;28;20053;-70
2021/07/18 07:52:32;;;;;;;9.93;2.63;;;;;;;35.82;34.16;100010.75;4992779;28;20049;-69
2021/07/18 07:55:03;;;;;;;9.90;2.65;;;;;;;35.79;33.89;100012.91;4992474;28;20057;-69
2021/07/18 07:57:30;;;;;;;14.88;2.20;;;;;;;35.84;34.23;100010.59;4993642;28;20045;-69
2021/07/18 07:59:59;;;;;;;8.77;2.38;;;;;;;36.06;33.21;100009.22;5004939;28;20057;-69
2021/07/18 08:02:26;;;;;;;6.85;1.88;;;;;;;36.10;33.71;100011.53;5001758;28;20050;-69
2021/07/18 08:04:54;;;;;;;5.65;1.33;;;;;;;35.53;34.82;100002.66;4996928;28;20042;-68
2021/07/18 08:07:21;;;;;;;11.30;2.20;;;;;;;35.16;34.58;99999.97;4996259;28;20046;-70
2021/07/18 08:09:49;;;;;;;4.90;1.30;;;;;;;35.26;35.08;99999.94;5003468;28;20042;-70
2021/07/18 08:12:16;;;;;;;7.38;1.83;;;;;;;35.26;35.53;100002.69;4996655;28;20042;-70
2021/07/18 08:14:44;;;;;;;7.45;2.20;;;;;;;35.34;34.17;99996.44;5000267;28;20077;-71
2021/07/18 08:17:14;;;;;;;8.48;1.73;;;;;;;35.57;34.49;100003.22;4987500;28;20444;-70
2021/07/18 08:19:41;;;;;;;8.40;2.22;;;;;;;35.48;35.26;100009.63;5002170;28;20042;-69
2021/07/18 08:22:09;;;;;;;6.72;1.65;;;;;;;35.52;35.82;100005.56;5005902;28;20508;-70
2021/07/18 08:24:38;;;;;;;6.70;2.08;;;;;;;35.37;36.12;100007.97;5006512;28;20049;-70
2021/07/18 08:27:06;;;;;;;6.60;1.63;;;;;;;35.25;36.26;100003.69;5006889;28;20057;-70
2021/07/18 08:29:34;;;;;;;5.15;1.67;;;;;;;35.36;36.15;100009.00;5005999;28;20049;-70
2021/07/18 08:32:02;;;;;;;5.00;1.65;;;;;;;35.31;36.13;100008.59;5006711;28;20046;-71
2021/07/18 08:34:30;;;;;;;10.18;2.00;;;;;;;35.53;35.92;100018.28;5006106;28;20137;-70
2021/07/18 08:36:58;;;;;;;4.70;1.60;;;;;;;35.58;36.81;100010.44;5007377;28;20044;-69
2021/07/18 08:39:26;;;;;;;5.82;1.75;;;;;;;35.78;36.47;100013.94;5006661;28;20072;-69
2021/07/18 08:41:54;;;;;;;6.47;1.70;;;;;;;35.70;36.91;100012.00;5001865;28;20042;-69
2021/07/18 08:44:24;;;;;;;6.95;1.77;;;;;;;35.68;37.92;100013.13;5005352;28;21045;-70
2021/07/18 08:46:51;;;;;;;7.35;1.67;;;;;;;35.65;38.38;100010.66;5006886;28;20042;-70
2021/07/18 08:49:19;;;;;;;5.60;1.63;;;;;;;35.50;39.02;100007.63;5005692;28;20038;-70
2021/07/18 08:51:48;;;;;;;7.00;1.60;;;;;;;35.01;40.12;100006.09;5006652;28;20045;-70
2021/07/18 08:54:18;;;;;;;7.65;1.75;;;;;;;34.90;41.07;99998.94;5006912;28;20163;-71
2021/07/18 08:56:48;;;;;;;8.05;1.95;;;;;;;34.90;40.87;99989.84;5007118;28;20052;-69
2021/07/18 08:59:15;;;;;;;8.93;2.53;;;;;;;35.35;40.46;99993.53;5006492;28;20038;-70
2021/07/18 09:01:45;;;;;;;9.13;2.03;;;;;;;35.54;40.60;99987.91;5007589;28;20038;-70
2021/07/18 09:04:13;;;;;;;9.18;2.08;;;;;;;35.55;40.44;99983.28;5008739;28;20034;-70
2021/07/18 09:06:42;;;;;;;7.82;1.95;;;;;;;35.74;39.77;99987.81;5010813;28;20109;-70
2021/07/18 09:09:15;;;;;;;11.02;2.83;;;;;;;35.94;39.26;99986.63;5008673;28;20514;-70
2021/07/18 09:11:43;;;;;;;7.63;2.30;;;;;;;36.18;39.02;99986.88;5009580;28;20042;-69
2021/07/18 09:14:13;;;;;;;9.63;2.47;;;;;;;36.41;38.27;99984.47;5007251;28;20119;-70
2021/07/18 09:16:42;;;;;;;8.52;2.10;;;;;;;36.63;37.96;99991.31;5013295;28;20045;-70
2021/07/18 09:19:25;;;;;;;8.23;2.13;;;;;;;36.76;37.38;99988.19;5008732;28;20128;-70
2021/07/18 09:22:08;;;;;;;5.57;1.67;;;;;;;36.95;36.87;99990.69;5006204;28;20454;-70
2021/07/18 09:24:39;;;;;;;12.33;2.00;;;;;;;37.06;37.34;99977.50;5005944;28;20592;-70
2021/07/18 09:27:12;;;;;;;6.88;2.25;;;;;;;36.93;37.09;99992.75;5007238;28;20271;-70
2021/07/18 09:29:42;;;;;;;11.82;2.15;;;;;;;36.71;37.28;99980.41;5003483;28;20061;-70
2021/07/18 09:32:12;;;;;;;10.32;2.83;;;;;;;36.99;36.80;99994.84;4996536;28;20046;-70
2021/07/18 09:34:41;;;;;;;4.70;1.45;;;;;;;37.01;32.88;99981.78;5004254;28;20399;-70
2021/07/18 09:37:12;;;;;;;9.32;2.10;;;;;;;37.23;32.48;99985.84;5009793;28;20038;-70
2021/07/18 09:39:42;;;;;;;6.85;1.63;;;;;;;37.32;31.61;99973.84;5004609;28;20042;-71
2021/07/18 09:42:10;;;;;;;5.40;1.48;;;;;;;37.40;29.98;99976.63;5007018;28;20041;-71
2021/07/18 09:44:45;;;;;;;7.38;1.70;;;;;;;37.29;30.10;99969.50;5005581;28;20045;-70
2021/07/18 09:47:12;;;;;;;7.50;2.22;;;;;;;37.29;29.78;99964.00;5008487;28;20038;-72
2021/07/18 09:49:40;;;;;;;7.32;1.95;;;;;;;37.21;29.60;99969.50;5009087;28;20038;-71
2021/07/18 09:52:20;;;;;;;7.97;2.53;;;;;;;37.21;30.06;99966.75;5007703;28;20040;-71
2021/07/18 09:54:50;;;;;;;7.93;2.22;;;;;;;37.19;30.63;99965.19;5004947;28;20041;-70
2021/07/18 09:57:35;;;;;;;6.90;1.50;;;;;;;37.11;30.23;99958.63;5005583;28;20127;-70
2021/07/18 10:00:09;;;;;;;11.98;2.70;;;;;;;36.96;30.77;99959.38;5008304;28;20077;-71
2021/07/18 10:02:37;;;;;;;6.47;2.10;;;;;;;36.68;31.64;99958.72;4990677;28;20048;-69
2021/07/18 10:05:05;;;;;;;8.18;2.10;;;;;;;36.63;31.80;99966.53;5006410;28;20038;-70
2021/07/18 10:07:35;;;;;;;10.38;1.73;;;;;;;36.58;31.28;99955.19;5007387;28;20049;-70
2021/07/18 10:10:06;;;;;;;8.45;2.33;;;;;;;36.40;31.41;99952.50;5007701;28;20045;-70
2021/07/18 10:12:35;;;;;;;7.82;2.65;;;;;;;36.28;31.76;99951.91;5007425;28;20050;-71
2021/07/18 10:15:03;;;;;;;7.50;1.90;;;;;;;36.28;31.11;99960.16;5006764;28;20128;-71
2021/07/18 10:17:31;;;;;;;8.02;2.03;;;;;;;36.24;30.92;99966.13;5008447;28;20034;-70
2021/07/18 10:19:58;;;;;;;8.13;1.60;;;;;;;36.24;31.02;99955.97;5008418;28;20495;-71
2021/07/18 10:22:26;;;;;;;7.22;1.55;;;;;;;36.20;29.97;99951.84;5008410;28;20057;-70
2021/07/18 10:24:56;;;;;;;9.93;2.00;;;;;;;36.12;30.32;99954.47;5010497;28;20376;-71
2021/07/18 10:27:25;;;;;;;8.13;2.00;;;;;;;36.13;30.38;99947.09;5007801;28;20120;-71
2021/07/18 10:29:54;;;;;;;6.70;1.65;;;;;;;36.04;31.01;99959.91;5008616;28;20050;-71
2021/07/18 10:32:25;;;;;;;9.45;1.98;;;;;;;36.06;31.66;99949.63;5006893;28;20411;-71
2021/07/18 10:34:55;;;;;;;9.00;1.80;;;;;;;36.04;32.06;99957.16;5009423;28;20096;-71
2021/07/18 10:37:24;;;;;;;8.60;1.95;;;;;;;36.03;32.51;99951.84;5007173;28;20049;-71
2021/07/18 10:39:56;;;;;;;6.50;1.73;;;;;;;35.94;32.53;99961.91;5009258;28;20038;-72
2021/07/18 10:42:35;;;;;;;5.38;1.63;;;;;;;36.00;32.54;99966.75;5006476;28;20120;-72
2021/07/18 10:45:21;;;;;;;7.15;1.77;;;;;;;36.08;33.08;99971.47;5007680;28;20041;-71
2021/07/18 10:48:00;;;;;;;7.57;1.90;;;;;;;36.21;33.25;99972.81;5002613;28;20054;-71
2021/07/18 10:50:51;;;;;;;6.18;1.50;;;;;;;36.24;31.35;99961.47;5007045;28;20041;-71
2021/07/18 10:53:20;;;;;;;8.13;1.95;;;;;;;36.27;33.32;99966.66;5005099;28;20092;-70
2021/07/18 10:55:48;;;;;;;10.52;2.10;;;;;;;36.44;34.27;99966.78;5006636;28;20038;-70
2021/07/18 10:58:51;;;;;;;10.75;2.40;;;;;;;36.68;34.71;99964.22;4994573;28;20056;-71
2021/07/18 11:01:34;;;;;;;9.63;2.45;;;;;;;36.82;34.61;99963.63;4999937;28;20030;-71
2021/07/18 11:04:01;;;;;;;9.82;2.00;;;;;;;36.72;34.85;99962.88;5012921;28;20038;-71
2021/07/18 11:06:30;;;;;;;7.82;2.10;;;;;;;36.68;35.21;99965.09;5008112;28;20042;-71
2021/07/18 11:09:17;;;;;;;10.48;2.10;;;;;;;36.66;35.36;99958.03;4991121;28;20046;-70
2021/07/18 11:11:46;;;;;;;8.38;1.70;;;;;;;36.64;35.42;99954.53;5004814;28;20056;-71
2021/07/18 11:14:25;;;;;;;9.63;2.22;;;;;;;36.77;35.37;99946.72;5005441;28;20041;-71
2021/07/18 11:16:55;;;;;;;8.63;1.90;;;;;;;36.92;35.26;99939.56;5009793;28;20042;-71
2021/07/18 11:19:57;;;;;;;12.27;2.53;;;;;;;37.16;35.11;99951.72;5011091;28;20053;-71
2021/07/18 11:23:01;;;;;;;9.48;2.80;;;;;;;37.54;34.87;99945.66;5009567;28;20080;-70
2021/07/18 11:25:53;;;;;;;9.90;2.00;;;;;;;37.59;34.40;99951.56;5006137;28;20042;-71
2021/07/18 11:28:50;;;;;;;12.85;2.95;;;;;;;37.66;34.26;99949.84;5010547;28;20042;-71
2021/07/18 11:31:46;;;;;;;6.40;1.85;;;;;;;37.55;34.25;99947.38;5004236;28;20053;-71
2021/07/18 11:34:15;;;;;;;6.47;1.95;;;;;;;37.55;34.25;99950.13;5003021;28;20408;-71
2021/07/18 11:37:11;;;;;;;12.52;2.10;;;;;;;37.67;33.63;99950.72;5006668;28;20474;-71
2021/07/18 11:39:40;;;;;;;14.55;2.60;;;;;;;37.54;33.87;99942.91;5011227;28;20377;-71